Time;durP1;ratioP1;P1;durP2;ratioP2;P2;SDS_P1;SDS_P2;PMS_P1;PMS_P2;Temp;Humidity;BMP_temperature;BMP_pressure;BME280_temperature;BME280_humidity;BME280_pressure;Samples;Min_cycle;Max_cycle;Signal;HPM_P1;HPM_P2
2022/06/24 05:00:41;;;;;;;9.67;2.83;;;20.60;97.20;;;;;;1727295;28;20184;-73
2022/06/24 05:01:32;;;;;;;5.75;3.10;;;20.60;97.20;;;;;;1727094;28;20592;-73
2022/06/24 05:02:23;;;;;;;3.67;2.85;;;20.60;97.20;;;;;;1726910;28;20208;-73
2022/06/24 05:03:14;;;;;;;5.72;2.53;;;20.60;97.20;;;;;;1726671;28;20211;-73
2022/06/24 05:04:06;;;;;;;5.13;2.43;;;20.60;97.20;;;;;;1727149;28;20192;-73
2022/06/24 05:04:56;;;;;;;5.22;3.13;;;20.60;97.20;;;;;;1726944;28;20212;-73
2022/06/24 05:05:48;;;;;;;6.00;2.83;;;20.60;97.20;;;;;;1726681;28;20205;-73
2022/06/24 05:06:39;;;;;;;5.13;2.95;;;20.60;97.20;;;;;;1726891;28;20207;-73
2022/06/24 05:07:31;;;;;;;4.18;2.50;;;20.60;97.20;;;;;;1727017;28;20239;-73
2022/06/24 05:08:22;;;;;;;5.15;2.65;;;20.60;97.20;;;;;;1726856;28;20571;-73
2022/06/24 05:09:14;;;;;;;5.23;2.73;;;20.60;97.20;;;;;;1727083;28;20304;-73
2022/06/24 05:10:06;;;;;;;3.92;2.70;;;20.50;97.20;;;;;;1727321;28;20200;-73
2022/06/24 05:10:58;;;;;;;7.25;3.15;;;20.50;97.20;;;;;;1727169;28;20203;-72
2022/06/24 05:11:50;;;;;;;5.50;3.00;;;20.50;97.20;;;;;;1727178;28;20571;-73
2022/06/24 05:12:42;;;;;;;4.78;2.75;;;20.50;97.20;;;;;;1727203;28;20205;-73
2022/06/24 05:13:32;;;;;;;5.90;2.85;;;20.50;97.20;;;;;;1726937;28;20208;-72
2022/06/24 05:14:24;;;;;;;4.23;3.30;;;20.50;97.20;;;;;;1726704;28;20299;-73
2022/06/24 05:15:15;;;;;;;6.20;3.05;;;20.50;97.20;;;;;;1727155;28;20216;-73
2022/06/24 05:16:08;;;;;;;8.77;3.00;;;20.60;97.20;;;;;;1728576;28;20250;-72
2022/06/24 05:16:59;;;;;;;9.10;2.78;;;20.60;97.20;;;;;;1726514;28;20673;-73
2022/06/24 05:17:51;;;;;;;5.50;2.78;;;20.60;97.20;;;;;;1727120;28;20198;-73
2022/06/24 05:18:42;;;;;;;8.80;3.35;;;20.60;97.20;;;;;;1727309;28;20216;-73
2022/06/24 05:19:34;;;;;;;5.68;2.95;;;20.60;97.20;;;;;;1726925;28;20201;-73
2022/06/24 05:20:25;;;;;;;5.85;3.13;;;20.60;97.20;;;;;;1726918;28;20215;-73
2022/06/24 05:21:16;;;;;;;6.77;2.93;;;20.60;97.20;;;;;;1727173;28;20280;-72
2022/06/24 05:22:07;;;;;;;6.35;2.70;;;20.70;97.20;;;;;;1727263;28;20250;-73
2022/06/24 05:22:59;;;;;;;5.20;2.73;;;20.70;97.20;;;;;;1727101;28;20291;-73
2022/06/24 05:23:50;;;;;;;5.15;2.55;;;20.80;97.20;;;;;;1727063;28;20451;-73
2022/06/24 05:24:42;;;;;;;5.63;2.63;;;20.80;97.20;;;;;;1727205;28;20223;-73
2022/06/24 05:25:33;;;;;;;5.00;2.92;;;20.80;97.20;;;;;;1726933;28;20448;-73
2022/06/24 05:26:25;;;;;;;5.45;2.90;;;20.80;97.20;;;;;;1726420;28;20339;-73
2022/06/24 05:27:16;;;;;;;3.53;2.40;;;20.80;97.20;;;;;;1726979;28;20575;-73
2022/06/24 05:28:07;;;;;;;6.77;2.60;;;20.80;97.20;;;;;;1727226;28;20567;-73
2022/06/24 05:28:58;;;;;;;5.63;3.10;;;20.80;97.20;;;;;;1728406;28;20200;-72
2022/06/24 05:29:50;;;;;;;5.80;2.60;;;20.80;97.20;;;;;;1728033;28;20279;-73
2022/06/24 05:30:41;;;;;;;4.35;2.72;;;20.80;97.20;;;;;;1728634;28;20201;-73
2022/06/24 05:31:34;;;;;;;7.80;2.83;;;20.80;97.20;;;;;;1728109;28;20280;-73
2022/06/24 05:32:25;;;;;;;3.17;2.22;;;20.80;97.20;;;;;;1728239;28;20224;-73
2022/06/24 05:33:16;;;;;;;6.20;2.80;;;20.80;97.20;;;;;;1728453;28;20288;-73
2022/06/24 05:34:09;;;;;;;7.35;3.67;;;20.80;97.20;;;;;;1727674;28;20942;-73
2022/06/24 05:35:00;;;;;;;7.88;3.05;;;20.90;97.20;;;;;;1728496;28;20204;-73
2022/06/24 05:35:55;;;;;;;5.33;2.47;;;20.90;97.20;;;;;;1727627;28;20275;-73
2022/06/24 05:36:46;;;;;;;8.38;3.63;;;20.90;97.20;;;;;;1727474;28;20204;-73
2022/06/24 05:37:39;;;;;;;4.23;2.77;;;21.00;97.20;;;;;;1728135;28;20205;-73
2022/06/24 05:38:29;;;;;;;4.47;2.90;;;21.00;97.20;;;;;;1728209;28;20713;-73
2022/06/24 05:39:22;;;;;;;7.17;2.80;;;21.00;97.20;;;;;;1728165;28;20652;-73
2022/06/24 05:40:12;;;;;;;5.95;2.60;;;21.00;97.20;;;;;;1728379;28;20201;-73
2022/06/24 05:41:04;;;;;;;5.27;2.73;;;21.00;97.20;;;;;;1728433;28;20284;-73
2022/06/24 05:41:55;;;;;;;5.10;3.03;;;21.00;97.20;;;;;;1728023;28;20589;-73
2022/06/24 05:42:47;;;;;;;7.23;4.17;;;21.00;97.20;;;;;;1728355;28;20197;-73
2022/06/24 05:43:38;;;;;;;8.02;2.83;;;21.00;97.20;;;;;;1728001;28;20211;-73
2022/06/24 05:44:30;;;;;;;4.50;3.03;;;21.00;97.20;;;;;;1728146;28;20220;-72
2022/06/24 05:45:21;;;;;;;4.95;2.92;;;21.00;97.20;;;;;;1728443;28;20450;-71
2022/06/24 05:46:13;;;;;;;5.60;2.60;;;20.90;97.20;;;;;;1727598;28;20659;-73
2022/06/24 05:47:06;;;;;;;5.25;3.20;;;20.90;97.20;;;;;;1727861;28;20219;-73
2022/06/24 05:47:58;;;;;;;4.50;2.40;;;20.90;97.20;;;;;;1727899;28;20208;-72
2022/06/24 05:48:49;;;;;;;6.10;3.30;;;20.90;97.20;;;;;;1728102;28;20196;-73
2022/06/24 05:49:41;;;;;;;5.40;2.87;;;20.90;97.20;;;;;;1727925;28;20200;-73
2022/06/24 05:50:32;;;;;;;5.35;2.83;;;20.90;97.20;;;;;;1728187;28;20486;-73
2022/06/24 05:51:24;;;;;;;4.87;3.10;;;20.90;97.20;;;;;;1728526;28;20266;-73
2022/06/24 05:52:15;;;;;;;5.10;3.00;;;20.90;97.20;;;;;;1728071;28;20197;-73
2022/06/24 05:55:25;;;;;;;4.88;2.58;;;20.90;97.20;;;;;;1728171;28;20323;-73
2022/06/24 05:56:18;;;;;;;7.50;2.83;;;20.90;97.20;;;;;;1729464;28;20204;-73
2022/06/24 05:57:09;;;;;;;8.68;3.10;;;20.90;97.20;;;;;;1728009;28;20200;-73
2022/06/24 05:58:01;;;;;;;5.73;2.43;;;20.90;97.20;;;;;;1728288;28;20227;-73
2022/06/24 05:58:52;;;;;;;6.00;2.70;;;20.90;97.20;;;;;;1728277;28;20211;-73
2022/06/24 05:59:43;;;;;;;7.20;2.87;;;21.00;97.20;;;;;;1728309;28;20204;-73
2022/06/24 06:00:35;;;;;;;5.40;3.08;;;21.00;97.20;;;;;;1728108;28;20204;-73
2022/06/24 06:01:27;;;;;;;4.88;2.95;;;21.00;97.20;;;;;;1728075;28;20671;-73
2022/06/24 06:02:22;;;;;;;6.47;2.70;;;21.00;97.20;;;;;;1728126;28;20240;-73
2022/06/24 06:03:14;;;;;;;5.53;2.60;;;21.00;97.20;;;;;;1728202;28;20200;-73
2022/06/24 06:04:05;;;;;;;4.57;2.80;;;21.00;97.20;;;;;;1728065;28;20201;-73
2022/06/24 06:04:56;;;;;;;6.07;2.80;;;21.00;97.20;;;;;;1727096;28;20284;-73
2022/06/24 06:05:47;;;;;;;6.75;2.95;;;21.00;97.20;;;;;;1725721;28;20667;-73
2022/06/24 06:06:40;;;;;;;6.23;3.20;;;21.00;97.20;;;;;;1721061;28;20620;-73
2022/06/24 06:07:31;;;;;;;5.53;2.88;;;21.00;97.20;;;;;;1721249;28;20512;-72
2022/06/24 06:08:22;;;;;;;5.50;3.07;;;21.00;97.20;;;;;;1721396;28;20201;-73
2022/06/24 06:09:13;;;;;;;5.90;2.83;;;21.00;97.20;;;;;;1720810;28;20219;-72
2022/06/24 06:10:06;;;;;;;4.10;2.83;;;21.00;97.20;;;;;;1726622;28;20197;-73
2022/06/24 06:10:57;;;;;;;7.65;3.00;;;21.00;97.20;;;;;;1728059;28;20201;-73
2022/06/24 06:11:49;;;;;;;5.45;2.75;;;21.10;97.20;;;;;;1727885;28;20197;-73
2022/06/24 06:12:40;;;;;;;4.82;3.10;;;21.10;97.20;;;;;;1727928;28;20208;-73
2022/06/24 06:13:32;;;;;;;7.37;2.83;;;21.10;97.20;;;;;;1727600;28;20291;-72
2022/06/24 06:14:23;;;;;;;7.05;2.95;;;21.10;97.20;;;;;;1727621;28;20247;-73
2022/06/24 06:15:15;;;;;;;6.83;2.70;;;21.10;97.20;;;;;;1728086;28;20311;-72
2022/06/24 06:16:06;;;;;;;4.90;3.25;;;21.10;97.20;;;;;;1728028;28;20208;-72
2022/06/24 06:16:58;;;;;;;4.63;3.03;;;21.20;97.20;;;;;;1727885;28;20228;-73
2022/06/24 06:17:50;;;;;;;4.68;2.60;;;21.20;97.20;;;;;;1727905;28;20207;-73
2022/06/24 06:18:42;;;;;;;7.43;3.10;;;21.20;97.20;;;;;;1727723;28;20253;-73
2022/06/24 06:19:34;;;;;;;7.18;3.30;;;21.20;97.20;;;;;;1728085;28;20663;-73
2022/06/24 06:20:26;;;;;;;5.78;2.50;;;21.20;97.20;;;;;;1728124;28;20568;-73
2022/06/24 06:21:17;;;;;;;5.50;3.40;;;21.20;97.20;;;;;;1728081;28;20561;-73
2022/06/24 06:22:08;;;;;;;4.53;2.85;;;21.20;97.20;;;;;;1727991;28;20236;-73
2022/06/24 06:22:59;;;;;;;5.35;2.65;;;21.30;97.20;;;;;;1728039;28;20201;-73
2022/06/24 06:23:51;;;;;;;5.97;2.57;;;21.30;97.20;;;;;;1727966;28;20292;-73
2022/06/24 06:24:43;;;;;;;6.05;2.80;;;21.30;97.20;;;;;;1727985;28;21003;-73
2022/06/24 06:25:35;;;;;;;4.80;2.90;;;21.30;97.20;;;;;;1728025;28;20197;-73
2022/06/24 06:26:26;;;;;;;7.95;2.97;;;21.30;97.20;;;;;;1728003;28;20428;-73
2022/06/24 06:27:17;;;;;;;4.57;2.50;;;21.30;97.20;;;;;;1727708;28;20287;-72
2022/06/24 06:28:08;;;;;;;5.28;2.45;;;21.30;97.20;;;;;;1727946;28;20444;-73
2022/06/24 06:29:01;;;;;;;5.00;2.53;;;21.30;97.20;;;;;;1728020;28;20287;-72
2022/06/24 06:29:52;;;;;;;5.47;2.63;;;21.30;97.20;;;;;;1727669;28;20201;-72
2022/06/24 06:30:44;;;;;;;4.77;3.10;;;21.30;97.20;;;;;;1727964;28;20193;-73
2022/06/24 06:31:35;;;;;;;7.75;2.92;;;21.30;97.20;;;;;;1728003;28;20664;-73
2022/06/24 06:32:26;;;;;;;9.47;3.23;;;21.30;97.20;;;;;;1728033;28;20965;-73
2022/06/24 06:33:20;;;;;;;6.28;3.10;;;21.40;97.20;;;;;;1727955;28;20204;-72
2022/06/24 06:34:11;;;;;;;5.47;2.80;;;21.40;97.20;;;;;;1727944;28;20197;-73
2022/06/24 06:35:02;;;;;;;7.78;3.45;;;21.40;97.20;;;;;;1728030;28;20204;-73
2022/06/24 06:36:02;;;;;;;2.90;2.60;;;21.40;97.20;;;;;;1727882;28;20231;-73
2022/06/24 06:36:53;;;;;;;4.10;2.83;;;21.40;97.20;;;;;;1727679;28;20679;-73
2022/06/24 06:37:45;;;;;;;5.77;2.90;;;21.40;97.20;;;;;;1728033;28;20772;-73
2022/06/24 06:38:36;;;;;;;3.05;2.30;;;21.50;97.20;;;;;;1727961;28;20212;-73
2022/06/24 06:39:28;;;;;;;4.55;2.85;;;21.50;97.20;;;;;;1727362;28;20623;-72
2022/06/24 06:40:19;;;;;;;6.22;2.97;;;21.50;97.20;;;;;;1727350;28;20559;-73
2022/06/24 06:41:10;;;;;;;9.53;3.30;;;21.50;97.20;;;;;;1728029;28;20303;-73
2022/06/24 06:42:01;;;;;;;6.20;2.80;;;21.50;97.20;;;;;;1726400;28;20200;-72
2022/06/24 06:42:55;;;;;;;5.43;2.97;;;21.50;97.20;;;;;;1727101;28;20284;-71
2022/06/24 06:43:46;;;;;;;6.25;3.00;;;21.50;97.20;;;;;;1726575;28;20883;-72
2022/06/24 06:44:37;;;;;;;6.27;3.20;;;21.50;97.20;;;;;;1726341;28;20216;-72
2022/06/24 06:45:28;;;;;;;3.97;2.55;;;21.60;97.20;;;;;;1725390;28;20448;-72
2022/06/24 06:46:20;;;;;;;5.97;2.77;;;21.60;97.20;;;;;;1726010;28;20207;-72
2022/06/24 06:47:11;;;;;;;3.90;2.65;;;21.60;97.20;;;;;;1726397;28;20450;-72
2022/06/24 06:48:03;;;;;;;7.53;3.00;;;21.60;97.20;;;;;;1728765;28;20282;-72
2022/06/24 06:48:56;;;;;;;4.75;3.00;;;21.60;97.20;;;;;;1732937;28;20208;-73
2022/06/24 06:49:47;;;;;;;7.22;3.40;;;21.70;97.20;;;;;;1733802;28;20235;-73
2022/06/24 06:50:38;;;;;;;5.88;3.20;;;21.70;97.20;;;;;;1733999;28;20200;-73
2022/06/24 06:51:30;;;;;;;5.13;2.80;;;21.70;97.20;;;;;;1734805;28;20195;-72
2022/06/24 06:52:21;;;;;;;11.68;3.40;;;21.70;97.20;;;;;;1734726;28;20623;-72
2022/06/24 06:53:12;;;;;;;6.50;3.07;;;21.80;97.20;;;;;;1734848;28;20554;-72
2022/06/24 06:54:03;;;;;;;5.10;3.13;;;21.80;97.20;;;;;;1734705;28;20568;-73
2022/06/24 06:54:55;;;;;;;5.60;2.83;;;21.80;97.20;;;;;;1734844;28;20629;-72
2022/06/24 06:55:46;;;;;;;6.13;3.13;;;21.80;97.20;;;;;;1734778;28;20462;-72
2022/06/24 06:56:38;;;;;;;7.10;2.97;;;21.90;97.20;;;;;;1732352;28;20278;-72
2022/06/24 06:57:28;;;;;;;3.38;2.92;;;21.90;97.20;;;;;;1728006;28;20487;-73
2022/06/24 06:58:21;;;;;;;4.20;3.00;;;21.90;97.20;;;;;;1727850;28;20291;-72
2022/06/24 06:59:12;;;;;;;5.22;3.05;;;22.00;97.20;;;;;;1727940;28;20254;-72
2022/06/24 07:00:04;;;;;;;4.90;2.80;;;22.00;97.20;;;;;;1727782;28;20251;-72
2022/06/24 07:00:55;;;;;;;7.45;2.80;;;22.00;97.20;;;;;;1727864;28;20204;-72
2022/06/24 07:01:47;;;;;;;5.80;2.77;;;22.00;97.20;;;;;;1727927;28;20287;-73
2022/06/24 07:02:38;;;;;;;4.57;2.83;;;22.00;97.20;;;;;;1727876;28;20228;-73
2022/06/24 07:03:30;;;;;;;5.83;2.80;;;22.10;97.20;;;;;;1727964;28;20291;-72
2022/06/24 07:04:22;;;;;;;4.32;2.45;;;22.10;97.20;;;;;;1727861;28;20443;-73
2022/06/24 07:05:14;;;;;;;6.93;2.70;;;22.10;97.20;;;;;;1727830;28;20251;-73
2022/06/24 07:06:05;;;;;;;6.18;2.83;;;22.10;97.20;;;;;;1727938;28;20680;-73
2022/06/24 07:06:57;;;;;;;5.65;2.63;;;22.20;97.20;;;;;;1727576;28;20587;-73
2022/06/24 07:07:48;;;;;;;2.38;2.17;;;22.20;97.20;;;;;;1727821;28;20845;-73
2022/06/24 07:08:39;;;;;;;4.97;3.00;;;22.20;97.20;;;;;;1727841;28;20291;-73
2022/06/24 07:09:30;;;;;;;5.18;3.40;;;22.20;97.20;;;;;;1727833;28;20207;-72
2022/06/24 07:10:22;;;;;;;5.30;2.93;;;22.20;97.20;;;;;;1727899;28;20215;-72
2022/06/24 07:11:13;;;;;;;7.38;2.80;;;22.20;97.20;;;;;;1727804;28;20209;-72
2022/06/24 07:12:05;;;;;;;6.50;3.53;;;22.30;97.20;;;;;;1727878;28;20204;-73
2022/06/24 07:12:56;;;;;;;4.30;2.53;;;22.30;97.20;;;;;;1727425;28;20223;-73
2022/06/24 07:13:48;;;;;;;7.27;2.80;;;22.30;97.20;;;;;;1727870;28;20238;-72
2022/06/24 07:14:39;;;;;;;6.63;2.85;;;22.40;97.20;;;;;;1727654;28;20236;-72
2022/06/24 07:15:31;;;;;;;5.43;2.90;;;22.40;97.20;;;;;;1727842;28;20283;-73
2022/06/24 07:16:22;;;;;;;4.30;2.47;;;22.40;97.20;;;;;;1727796;28;20211;-73
2022/06/24 07:17:14;;;;;;;3.70;2.73;;;22.40;97.20;;;;;;1728360;28;20291;-73
2022/06/24 07:18:06;;;;;;;7.50;2.85;;;22.40;97.20;;;;;;1728254;28;20446;-73
2022/06/24 07:18:58;;;;;;;4.85;2.63;;;22.40;97.20;;;;;;1727765;28;20197;-73
2022/06/24 07:19:50;;;;;;;6.85;2.95;;;22.30;97.20;;;;;;1727873;28;20224;-73
2022/06/24 07:20:44;;;;;;;5.15;2.67;;;22.30;97.20;;;;;;1727879;28;20727;-73
2022/06/24 07:21:34;;;;;;;6.57;2.80;;;22.30;97.20;;;;;;1727881;28;20216;-72
2022/06/24 07:22:26;;;;;;;4.23;2.63;;;22.40;97.20;;;;;;1727756;28;20287;-73
2022/06/24 07:23:17;;;;;;;4.03;2.63;;;22.40;97.20;;;;;;1727724;28;20204;-72
2022/06/24 07:24:09;;;;;;;7.90;3.00;;;22.40;97.20;;;;;;1727848;28;20287;-72
2022/06/24 07:25:00;;;;;;;4.82;2.83;;;22.40;97.20;;;;;;1727500;28;20196;-72
2022/06/24 07:25:51;;;;;;;2.87;2.57;;;22.40;97.20;;;;;;1727533;28;20292;-73
2022/06/24 07:26:42;;;;;;;3.95;2.85;;;22.40;97.20;;;;;;1727449;28;20740;-73
2022/06/24 07:27:35;;;;;;;3.33;2.60;;;22.40;97.20;;;;;;1727391;28;20620;-73
2022/06/24 07:28:25;;;;;;;7.22;3.10;;;22.40;97.20;;;;;;1727374;28;20243;-73
2022/06/24 07:29:17;;;;;;;6.20;3.00;;;22.40;97.20;;;;;;1727209;28;20295;-73
2022/06/24 07:30:09;;;;;;;4.90;2.88;;;22.50;97.20;;;;;;1727440;28;20456;-73
2022/06/24 07:31:01;;;;;;;6.47;2.70;;;22.50;97.20;;;;;;1727210;28;20554;-73
2022/06/24 07:31:52;;;;;;;5.45;2.83;;;22.50;97.20;;;;;;1727188;28;20203;-72
2022/06/24 07:32:46;;;;;;;4.93;2.60;;;22.50;97.20;;;;;;1727305;28;20192;-73
2022/06/24 07:33:36;;;;;;;4.50;2.95;;;22.50;97.20;;;;;;1727235;28;20209;-73
2022/06/24 07:34:30;;;;;;;4.90;3.00;;;22.50;97.20;;;;;;1727169;28;20311;-73
2022/06/24 07:35:23;;;;;;;4.95;2.78;;;22.50;97.20;;;;;;1727359;28;20692;-73
2022/06/24 07:36:15;;;;;;;4.15;2.58;;;22.60;97.20;;;;;;1727296;28;20676;-72
2022/06/24 07:37:06;;;;;;;4.05;2.83;;;22.60;97.20;;;;;;1724396;28;20207;-73
2022/06/24 07:37:58;;;;;;;3.43;2.80;;;22.70;97.20;;;;;;1727142;28;20204;-72
2022/06/24 07:38:49;;;;;;;5.03;2.53;;;22.70;97.20;;;;;;1726943;28;20204;-73
2022/06/24 07:39:40;;;;;;;3.63;2.97;;;22.70;97.20;;;;;;1727363;28;20192;-73
2022/06/24 07:40:31;;;;;;;5.03;3.10;;;22.80;97.20;;;;;;1727200;28;20227;-73
2022/06/24 07:41:23;;;;;;;6.57;2.80;;;22.80;97.20;;;;;;1727314;28;20283;-72
2022/06/24 07:42:14;;;;;;;2.90;2.60;;;22.80;97.20;;;;;;1727141;28;20192;-73
2022/06/24 07:43:06;;;;;;;5.70;2.70;;;22.80;97.20;;;;;;1727180;28;20303;-72
2022/06/24 07:43:56;;;;;;;5.45;2.60;;;22.90;97.20;;;;;;1727204;28;20212;-73
2022/06/24 07:44:48;;;;;;;5.00;2.97;;;22.90;97.20;;;;;;1727131;28;20209;-73
2022/06/24 07:45:39;;;;;;;5.05;2.63;;;22.90;97.20;;;;;;1727173;28;20603;-72
2022/06/24 07:46:31;;;;;;;3.00;2.50;;;22.90;97.20;;;;;;1727230;28;20196;-72
2022/06/24 07:47:22;;;;;;;5.25;2.17;;;22.90;97.20;;;;;;1726964;28;20246;-72
2022/06/24 07:48:13;;;;;;;4.10;2.73;;;22.90;97.20;;;;;;1727107;28;20200;-73
2022/06/24 07:49:04;;;;;;;3.63;2.33;;;22.90;97.20;;;;;;1727149;28;20945;-72
2022/06/24 07:49:56;;;;;;;6.93;2.70;;;22.90;97.20;;;;;;1727137;28;20631;-73
2022/06/24 07:50:48;;;;;;;3.38;2.60;;;22.90;97.20;;;;;;1726998;28;20588;-73
2022/06/24 07:51:40;;;;;;;3.90;2.20;;;22.90;97.20;;;;;;1726932;28;20648;-72
2022/06/24 07:52:33;;;;;;;4.50;2.30;;;22.90;97.20;;;;;;1727017;28;20203;-73
2022/06/24 07:53:26;;;;;;;3.40;2.35;;;22.90;97.20;;;;;;1727124;28;20196;-72
2022/06/24 07:54:17;;;;;;;4.18;2.08;;;22.90;97.20;;;;;;1726996;28;20204;-72
2022/06/24 07:57:30;;;;;;;7.47;2.90;;;22.80;97.20;;;;;;1704165;29;20692;-73
2022/06/24 07:58:21;;;;;;;2.88;2.25;;;22.80;97.20;;;;;;1722503;28;20211;-72
2022/06/24 07:59:13;;;;;;;3.05;2.00;;;22.70;97.20;;;;;;1727084;28;20192;-73
2022/06/24 08:00:05;;;;;;;2.67;2.40;;;22.70;97.20;;;;;;1727060;28;20196;-73
2022/06/24 08:00:57;;;;;;;2.22;1.90;;;22.70;97.20;;;;;;1726998;28;20383;-72
2022/06/24 08:01:48;;;;;;;3.78;2.20;;;22.70;97.20;;;;;;1727097;28;20193;-72
2022/06/24 08:02:40;;;;;;;4.53;2.50;;;22.70;97.20;;;;;;1726967;28;20203;-72
2022/06/24 08:03:31;;;;;;;3.90;2.42;;;22.70;97.20;;;;;;1727024;28;20592;-72
2022/06/24 08:04:24;;;;;;;2.50;2.00;;;22.70;97.20;;;;;;1727052;28;20224;-72
2022/06/24 08:05:15;;;;;;;2.45;2.10;;;22.70;97.20;;;;;;1726950;28;20204;-73
2022/06/24 08:06:08;;;;;;;4.35;2.28;;;22.70;97.20;;;;;;1724537;28;20196;-72
2022/06/24 08:07:02;;;;;;;3.83;2.35;;;22.70;97.20;;;;;;1726726;28;20197;-72
2022/06/24 08:07:53;;;;;;;3.10;2.20;;;22.80;97.20;;;;;;1727014;28;20204;-72
2022/06/24 08:08:45;;;;;;;2.70;2.00;;;22.80;97.20;;;;;;1727530;28;20227;-72
2022/06/24 08:09:37;;;;;;;6.75;5.75;;;22.80;97.20;;;;;;1727305;28;20232;-72
2022/06/24 08:10:30;;;;;;;4.68;3.05;;;22.90;97.20;;;;;;1727462;28;20232;-73
2022/06/24 08:11:21;;;;;;;3.05;1.90;;;22.90;97.20;;;;;;1727527;28;20609;-73
2022/06/24 08:12:12;;;;;;;5.67;5.13;;;22.90;97.20;;;;;;1727030;28;20275;-72
2022/06/24 08:13:03;;;;;;;5.07;3.60;;;23.00;97.20;;;;;;1727527;28;20205;-72
2022/06/24 08:13:55;;;;;;;6.10;3.57;;;23.00;97.20;;;;;;1727371;28;20296;-73
2022/06/24 08:14:46;;;;;;;5.00;4.00;;;23.00;97.20;;;;;;1727315;28;20483;-75
2022/06/24 08:15:37;;;;;;;3.87;2.27;;;23.00;97.20;;;;;;1727406;28;20296;-74
2022/06/24 08:16:29;;;;;;;6.18;5.40;;;23.10;97.20;;;;;;1727414;28;20200;-74
2022/06/24 08:17:20;;;;;;;3.15;2.70;;;23.10;97.20;;;;;;1727196;28;20266;-73
2022/06/24 08:18:11;;;;;;;5.97;3.25;;;23.10;97.20;;;;;;1727355;28;20200;-73
2022/06/24 08:19:03;;;;;;;4.33;3.30;;;23.10;97.20;;;;;;1727466;28;20196;-73
2022/06/24 08:19:54;;;;;;;5.88;4.53;;;23.20;97.20;;;;;;1727384;28;20934;-73
2022/06/24 08:20:46;;;;;;;4.80;3.50;;;23.20;97.20;;;;;;1727531;28;20634;-74
2022/06/24 08:21:38;;;;;;;2.60;2.13;;;23.20;97.20;;;;;;1727398;28;20207;-74
2022/06/24 08:22:30;;;;;;;6.90;2.85;;;23.20;97.20;;;;;;1726645;28;20200;-74
2022/06/24 08:23:20;;;;;;;2.72;2.38;;;23.20;97.20;;;;;;1727124;28;20237;-74
2022/06/24 08:24:13;;;;;;;3.60;2.73;;;23.20;97.20;;;;;;1727266;28;20207;-73
2022/06/24 08:25:05;;;;;;;6.35;2.50;;;23.20;97.20;;;;;;1726707;28;20196;-73
2022/06/24 08:25:57;;;;;;;3.70;2.33;;;23.20;97.20;;;;;;1726946;28;20200;-72
2022/06/24 08:26:47;;;;;;;3.20;2.28;;;23.30;97.20;;;;;;1726746;28;20211;-73
2022/06/24 08:27:39;;;;;;;4.33;2.00;;;23.30;97.20;;;;;;1727102;28;20295;-73
2022/06/24 08:28:30;;;;;;;4.32;3.05;;;23.30;97.20;;;;;;1727142;28;20207;-73
2022/06/24 08:29:22;;;;;;;4.33;2.70;;;23.40;97.20;;;;;;1727272;28;20287;-73
2022/06/24 08:30:13;;;;;;;7.15;4.45;;;23.40;97.20;;;;;;1727332;28;20231;-73
2022/06/24 08:31:05;;;;;;;3.80;2.97;;;23.50;97.20;;;;;;1727390;28;20189;-73
2022/06/24 08:31:56;;;;;;;2.75;2.33;;;23.50;97.20;;;;;;1727298;28;20213;-73
2022/06/24 08:32:47;;;;;;;5.50;2.30;;;23.60;97.20;;;;;;1727399;28;20235;-72
2022/06/24 08:33:38;;;;;;;4.72;3.47;;;23.60;97.20;;;;;;1727067;28;20203;-73
2022/06/24 08:34:30;;;;;;;2.23;2.00;;;23.70;97.20;;;;;;1727245;28;20303;-73
2022/06/24 08:35:21;;;;;;;2.38;2.00;;;23.70;97.20;;;;;;1727270;28;20211;-72
2022/06/24 08:36:13;;;;;;;4.63;2.00;;;23.80;97.20;;;;;;1726902;28;20227;-73
2022/06/24 08:37:05;;;;;;;2.15;1.95;;;23.80;97.20;;;;;;1726432;28;20454;-72
2022/06/24 08:37:58;;;;;;;3.13;2.10;;;23.90;97.20;;;;;;1724326;28;20828;-73
2022/06/24 08:38:50;;;;;;;3.53;1.95;;;23.90;97.20;;;;;;1727144;28;20196;-73
2022/06/24 08:39:41;;;;;;;2.00;1.70;;;24.00;97.20;;;;;;1727215;28;20192;-73
2022/06/24 08:40:32;;;;;;;2.90;1.97;;;24.00;97.20;;;;;;1727239;28;20204;-73
2022/06/24 08:41:26;;;;;;;3.88;2.15;;;24.00;97.20;;;;;;1720388;28;20212;-73
2022/06/24 08:42:18;;;;;;;3.13;2.13;;;24.00;97.20;;;;;;1723803;28;20200;-73
2022/06/24 08:43:10;;;;;;;1.95;1.80;;;24.10;97.20;;;;;;1726141;28;20228;-73
2022/06/24 08:44:01;;;;;;;3.75;1.80;;;24.10;97.20;;;;;;1726976;28;20189;-73
2022/06/24 08:44:52;;;;;;;2.70;2.10;;;24.10;97.20;;;;;;1726346;28;20575;-73
2022/06/24 08:45:44;;;;;;;3.27;1.77;;;24.10;97.20;;;;;;1726392;28;20637;-73
2022/06/24 08:46:38;;;;;;;3.03;1.90;;;24.10;97.20;;;;;;1724160;28;20224;-72
2022/06/24 08:47:30;;;;;;;2.80;1.90;;;24.10;97.20;;;;;;1725993;28;20203;-72
2022/06/24 08:48:21;;;;;;;3.72;1.95;;;24.20;97.20;;;;;;1724669;28;20205;-72
2022/06/24 08:49:13;;;;;;;3.95;2.20;;;24.20;97.20;;;;;;1726970;28;20189;-73
2022/06/24 08:50:06;;;;;;;3.22;1.90;;;24.20;97.20;;;;;;1726444;28;20204;-73
2022/06/24 08:50:58;;;;;;;3.33;1.75;;;24.20;97.20;;;;;;1727309;28;20189;-77
2022/06/24 08:51:49;;;;;;;2.80;1.80;;;24.30;97.20;;;;;;1727110;28;20688;-72
2022/06/24 08:52:47;;;;;;;3.78;2.30;;;24.30;97.20;;;;;;1727188;28;20667;-72
2022/06/24 08:53:39;;;;;;;3.38;2.00;;;24.30;97.20;;;;;;1725229;28;20681;-72
2022/06/24 08:54:32;;;;;;;2.38;1.88;;;24.30;97.20;;;;;;1727124;28;20271;-72
2022/06/24 08:55:23;;;;;;;2.55;1.80;;;24.30;97.20;;;;;;1727177;28;20287;-73
2022/06/24 08:56:15;;;;;;;4.28;2.42;;;24.30;97.20;;;;;;1724535;28;20192;-76
2022/06/24 08:57:06;;;;;;;2.58;1.80;;;24.40;97.20;;;;;;1726794;28;20192;-72
2022/06/24 08:57:58;;;;;;;3.17;1.87;;;24.40;97.20;;;;;;1727022;28;20311;-72
2022/06/24 08:58:49;;;;;;;5.75;2.10;;;24.40;97.20;;;;;;1726843;28;20712;-72
2022/06/24 08:59:42;;;;;;;5.10;1.70;;;24.40;97.20;;;;;;1726503;28;20600;-72
2022/06/24 09:00:34;;;;;;;2.38;1.88;;;24.30;97.20;;;;;;1725610;28;20262;-72
2022/06/24 09:01:26;;;;;;;4.10;2.38;;;24.30;97.20;;;;;;1724114;28;20197;-72
2022/06/24 09:02:18;;;;;;;3.45;1.70;;;24.30;97.20;;;;;;1726779;28;20204;-72
2022/06/24 09:03:09;;;;;;;2.45;2.03;;;24.30;97.20;;;;;;1727280;28;20660;-72
2022/06/24 09:04:00;;;;;;;4.40;1.95;;;24.30;97.20;;;;;;1728479;28;20228;-72
2022/06/24 09:04:52;;;;;;;3.73;1.90;;;24.30;97.20;;;;;;1728200;28;20707;-72
2022/06/24 09:05:43;;;;;;;3.30;1.77;;;24.30;97.20;;;;;;1728194;28;20212;-72
2022/06/24 09:06:39;;;;;;;4.70;1.80;;;24.30;97.20;;;;;;1727980;28;20200;-72
2022/06/24 09:07:30;;;;;;;4.60;2.10;;;24.30;97.20;;;;;;1728388;28;20582;-72
2022/06/24 09:08:32;;;;;;;2.97;2.00;;;24.30;97.20;;;;;;1728393;28;20259;-72
2022/06/24 09:09:24;;;;;;;2.42;2.22;;;24.20;97.20;;;;;;1727117;28;20443;-72
2022/06/24 09:10:19;;;;;;;4.07;1.88;;;24.20;97.20;;;;;;1726040;28;20189;-72
2022/06/24 09:11:11;;;;;;;3.17;1.95;;;24.20;97.20;;;;;;1728371;28;20219;-72
2022/06/24 09:12:03;;;;;;;6.03;2.13;;;24.10;97.20;;;;;;1728427;28;20647;-72
2022/06/24 09:12:56;;;;;;;3.45;2.58;;;24.10;97.20;;;;;;1725832;28;20232;-72
2022/06/24 09:13:52;;;;;;;4.53;2.13;;;24.10;97.20;;;;;;1728249;28;20679;-72
2022/06/24 09:14:45;;;;;;;4.75;1.85;;;24.10;97.20;;;;;;1726714;28;20236;-72
2022/06/24 09:15:41;;;;;;;3.45;1.98;;;24.10;97.20;;;;;;1728191;28;20203;-72
2022/06/24 09:16:35;;;;;;;4.45;2.15;;;24.10;97.20;;;;;;1728168;28;20200;-71
2022/06/24 09:17:32;;;;;;;3.38;2.25;;;24.10;97.20;;;;;;1728047;28;20224;-72
2022/06/24 09:18:24;;;;;;;2.30;2.00;;;24.20;97.20;;;;;;1725150;28;20680;-72
2022/06/24 09:19:16;;;;;;;4.25;2.22;;;24.20;97.20;;;;;;1725770;28;20192;-73
2022/06/24 09:20:10;;;;;;;2.85;1.90;;;24.20;97.20;;;;;;1727783;28;20200;-72
2022/06/24 09:21:02;;;;;;;3.30;2.00;;;24.20;97.20;;;;;;1727955;28;20247;-72
2022/06/24 09:21:59;;;;;;;2.30;1.92;;;24.20;97.20;;;;;;1728160;28;20227;-72
2022/06/24 09:23:02;;;;;;;3.08;2.22;;;24.20;97.20;;;;;;1728374;28;20208;-72
2022/06/24 09:24:00;;;;;;;3.80;1.90;;;24.20;97.20;;;;;;1728352;28;20567;-72
2022/06/24 09:24:53;;;;;;;3.67;2.25;;;24.20;97.20;;;;;;1728200;28;20587;-72
2022/06/24 09:25:47;;;;;;;3.80;2.05;;;24.20;97.20;;;;;;1728278;28;20232;-72
2022/06/24 09:26:40;;;;;;;3.28;2.10;;;24.20;97.20;;;;;;1728084;28;20650;-72
2022/06/24 09:27:35;;;;;;;4.45;2.40;;;24.20;97.20;;;;;;1728274;28;20192;-72
2022/06/24 09:28:28;;;;;;;3.53;2.50;;;24.20;97.20;;;;;;1728135;28;20196;-72
2022/06/24 09:29:28;;;;;;;4.13;2.13;;;24.20;97.20;;;;;;1728313;28;20207;-72
2022/06/24 09:30:19;;;;;;;5.10;2.45;;;24.20;97.20;;;;;;1726411;28;20200;-72
2022/06/24 09:31:12;;;;;;;2.67;2.10;;;24.20;97.20;;;;;;1728245;28;20275;-72
2022/06/24 09:32:06;;;;;;;5.22;1.83;;;24.20;97.20;;;;;;1728249;28;20211;-72
2022/06/24 09:32:58;;;;;;;2.97;2.10;;;24.20;97.20;;;;;;1728253;28;20242;-72
2022/06/24 09:33:49;;;;;;;2.42;2.03;;;24.20;97.20;;;;;;1727893;28;20200;-73
2022/06/24 09:35:04;;;;;;;2.17;1.98;;;24.20;97.20;;;;;;1724351;28;20213;-72
2022/06/24 09:36:04;;;;;;;4.13;1.60;;;24.30;97.20;;;;;;1725440;28;20196;-72